logo
Rechercher aéroport 
image banner adimage banner adimage banner ad
image banner ad

HAKL - Kelafo

Situé à Kelafo, Ethiopia

ICAO - HAKL, IATA - LFO

Données fournies par Airmate  

Information générale

Coordonnées: N5°36'0" E44°20'0"
Élévation : 1730 feet MSL.
 
Voir autres Aéroports à Somali

Données opérationnelles

Special qualification required
Heure actuelle UTC:
Heure actuelle locale:
Météo à : - ( 0 km )
METAR: PKWA 251640Z AUTO 07007KT 10SM SCT019 SCT029 BKN060 27/25 A2981 RMK AO2 P0001 T02720252
Voir NOTAMs / SUP AIP / TFR affectant cet aéroport [VIEW]
Fréquences de communication: [VIEW]

Pistes:

Identifiant RWYQFULongueur (ft)Largeur (ft)SurfaceLDA (ft)
0700UNK
2500UNK

Coordonnées de l'aéroport

Adresse: Kelafo Ethiopia

Vue satellite de HAKL